createdAt,value
2023-03-16T00:02:31.979Z,873.21
2023-03-16T00:05:41.760Z,620.31
2023-03-16T00:08:47.665Z,434.27
2023-03-16T00:11:54.216Z,809.94
2023-03-16T00:15:02.067Z,743.32
2023-03-16T00:18:08.832Z,826.16
2023-03-16T00:21:18.518Z,679.65
2023-03-16T00:24:25.274Z,580.25
2023-03-16T00:27:31.130Z,648.24
2023-03-16T00:30:37.933Z,553.26
2023-03-16T00:33:45.650Z,618.18
2023-03-16T00:36:55.355Z,592.97
2023-03-16T00:40:08.056Z,463.27
2023-03-16T00:43:18.969Z,341.84
2023-03-16T00:46:28.041Z,390.77
2023-03-16T00:49:35.654Z,578.68
2023-03-16T00:52:45.096Z,551.42
2023-03-16T00:55:53.564Z,523.00
2023-03-16T00:59:00.685Z,363.78
2023-03-16T01:02:09.718Z,460.03
2023-03-16T01:05:16.711Z,460.20
2023-03-16T01:08:28.091Z,397.81
2023-03-16T01:11:35.555Z,468.27
2023-03-16T01:14:45.936Z,383.97
2023-03-16T01:17:51.948Z,392.08
2023-03-16T01:20:58.692Z,361.32
2023-03-16T01:24:07.649Z,406.74
2023-03-16T01:27:15.319Z,452.18
2023-03-16T01:30:24.165Z,459.62
2023-03-16T01:33:32.223Z,459.69
2023-03-16T01:36:38.097Z,525.02
2023-03-16T01:39:49.246Z,380.02
2023-03-16T01:43:07.218Z,876.15
2023-03-16T01:46:24.105Z,440.28
2023-03-16T01:49:39.512Z,555.90
2023-03-16T01:52:46.368Z,545.37
2023-03-16T01:55:56.572Z,497.52
2023-03-16T01:59:13.994Z,563.12
2023-03-16T02:02:26.690Z,390.50
2023-03-16T02:05:44.678Z,273.94
2023-03-16T02:08:57.065Z,258.36
2023-03-16T02:12:09.682Z,265.95
2023-03-16T02:15:19.670Z,265.98
2023-03-16T02:18:26.705Z,261.88
2023-03-16T02:21:49.923Z,258.27
2023-03-16T02:24:57.981Z,259.56
2023-03-16T02:28:23.646Z,256.43
2023-03-16T02:31:34.346Z,251.14
2023-03-16T02:34:42.104Z,236.11
2023-03-16T02:37:49.051Z,231.59
2023-03-16T02:41:04.277Z,229.00
2023-03-16T02:44:20.625Z,239.81
2023-03-16T02:47:38.696Z,246.73
2023-03-16T02:50:50.343Z,288.24
2023-03-16T02:53:56.155Z,403.51
2023-03-16T02:57:06.575Z,443.70
2023-03-16T03:00:18.046Z,417.64
2023-03-16T03:03:34.464Z,513.48
2023-03-16T03:06:40.403Z,407.99
2023-03-16T03:09:47.280Z,358.92
2023-03-16T03:12:53.191Z,437.16
2023-03-16T03:16:03.418Z,508.10
2023-03-16T03:19:11.829Z,511.82
2023-03-16T03:22:19.771Z,456.88
2023-03-16T03:25:26.915Z,531.14
2023-03-16T03:28:34.839Z,519.57
2023-03-16T03:31:40.732Z,458.23
2023-03-16T03:34:50.023Z,406.67
2023-03-16T03:37:55.955Z,376.83
2023-03-16T03:41:02.807Z,426.36
2023-03-16T03:44:15.312Z,485.42
2023-03-16T03:47:22.626Z,605.41
2023-03-16T03:50:31.966Z,597.91
2023-03-16T03:54:07.532Z,724.84
2023-03-16T03:57:24.372Z,769.54
2023-03-16T04:00:31.239Z,761.28
2023-03-16T04:03:37.883Z,1055.15
2023-03-16T04:06:48.219Z,831.75
2023-03-16T04:09:54.854Z,671.80
2023-03-16T04:13:06.406Z,670.33
2023-03-16T04:16:16.533Z,643.30
2023-03-16T04:19:26.046Z,575.95
2023-03-16T04:22:37.369Z,463.43
2023-03-16T04:25:43.357Z,379.89
2023-03-16T04:28:50.584Z,373.88
2023-03-16T04:31:58.573Z,349.75
2023-03-16T04:35:09.409Z,357.74
2023-03-16T04:38:29.527Z,343.30
2023-03-16T04:41:45.850Z,362.97
2023-03-16T04:44:56.967Z,345.81
2023-03-16T04:48:06.002Z,475.31
2023-03-16T04:51:12.013Z,449.35
2023-03-16T04:54:27.201Z,336.26
2023-03-16T04:57:33.205Z,340.55
2023-03-16T05:00:40.896Z,333.59
2023-03-16T05:03:57.060Z,336.04
2023-03-16T05:07:05.186Z,384.81
2023-03-16T05:10:22.125Z,362.99
2023-03-16T05:13:28.916Z,353.70
2023-03-16T05:16:37.740Z,359.66
2023-03-16T05:19:45.457Z,360.64
2023-03-16T05:22:54.007Z,361.48
2023-03-16T05:26:13.403Z,412.55
2023-03-16T05:29:19.852Z,395.97
2023-03-16T05:32:26.608Z,387.83
2023-03-16T05:35:32.830Z,397.93
2023-03-16T05:38:45.808Z,407.99
2023-03-16T05:42:01.970Z,405.91
2023-03-16T05:45:19.070Z,404.45
2023-03-16T05:48:37.836Z,383.41
2023-03-16T05:51:45.943Z,379.90
2023-03-16T05:54:52.753Z,363.15
2023-03-16T05:58:03.802Z,361.54
2023-03-16T06:01:13.530Z,348.20
2023-03-16T06:04:23.437Z,337.88
2023-03-16T06:07:32.602Z,341.02
2023-03-16T06:10:39.956Z,360.45
2023-03-16T06:13:48.437Z,366.67
2023-03-16T06:16:55.791Z,363.34
2023-03-16T06:20:02.035Z,327.24
2023-03-16T06:23:09.265Z,312.08
2023-03-16T06:26:16.052Z,326.95
2023-03-16T06:29:27.739Z,361.07
2023-03-16T06:32:34.838Z,325.58
2023-03-16T06:35:41.888Z,311.72
2023-03-16T06:38:56.053Z,283.11
2023-03-16T06:42:06.790Z,279.09
2023-03-16T06:45:16.817Z,278.70
2023-03-16T06:48:23.787Z,287.17
2023-03-16T06:51:30.300Z,309.83
2023-03-16T06:54:37.916Z,293.91
2023-03-16T06:57:45.295Z,279.18
2023-03-16T07:00:54.696Z,297.17
2023-03-16T07:04:01.979Z,299.12
2023-03-16T07:07:12.095Z,299.96
2023-03-16T07:10:21.074Z,306.94
2023-03-16T07:13:27.594Z,291.69
2023-03-16T07:16:36.564Z,258.88
2023-03-16T07:19:46.420Z,271.99
2023-03-16T07:22:53.255Z,258.92
2023-03-16T07:26:01.217Z,280.37
2023-03-16T07:29:07.868Z,274.08
2023-03-16T07:32:17.445Z,285.54
2023-03-16T07:35:26.698Z,287.24
2023-03-16T07:38:35.627Z,264.43
2023-03-16T07:41:45.564Z,286.38
2023-03-16T07:44:57.792Z,299.61
2023-03-16T07:48:08.817Z,262.94
2023-03-16T07:51:25.387Z,254.82
2023-03-16T07:54:31.704Z,253.42
2023-03-16T07:57:39.383Z,274.17
2023-03-16T08:00:45.417Z,289.07
2023-03-16T08:03:54.649Z,232.93
2023-03-16T08:07:02.334Z,232.93
2023-03-16T08:10:23.237Z,214.29
2023-03-16T08:13:35.792Z,209.07
2023-03-16T08:16:43.802Z,218.22
2023-03-16T08:19:52.340Z,246.59
2023-03-16T08:23:00.575Z,240.78
2023-03-16T08:26:13.269Z,225.81
2023-03-16T08:29:19.898Z,217.84
2023-03-16T08:32:27.033Z,207.22
2023-03-16T08:35:36.409Z,234.06
2023-03-16T08:38:44.136Z,244.98
2023-03-16T08:41:52.361Z,263.01
2023-03-16T08:45:12.286Z,273.21
2023-03-16T08:48:22.307Z,250.72
2023-03-16T08:51:32.779Z,222.51
2023-03-16T08:54:39.451Z,216.51
2023-03-16T08:57:46.537Z,209.41
2023-03-16T09:00:53.099Z,204.21
2023-03-16T09:04:00.709Z,208.00
2023-03-16T09:07:10.564Z,209.09
2023-03-16T09:10:19.119Z,225.04
2023-03-16T09:13:26.138Z,200.60
2023-03-16T09:16:34.641Z,200.26
2023-03-16T09:19:52.188Z,206.99
2023-03-16T09:23:02.135Z,205.67
2023-03-16T09:26:10.731Z,196.54
2023-03-16T09:29:16.796Z,191.53
2023-03-16T09:32:26.482Z,189.33
2023-03-16T09:35:34.357Z,183.16
2023-03-16T09:38:45.298Z,186.35
2023-03-16T09:42:06.063Z,176.23
2023-03-16T09:45:29.271Z,150.47
2023-03-16T09:48:41.332Z,145.26
2023-03-16T09:52:00.726Z,129.94
2023-03-16T09:55:29.207Z,114.12
2023-03-16T09:58:36.815Z,114.02
2023-03-16T10:02:04.553Z,81.50
2023-03-16T10:05:17.264Z,83.53
2023-03-16T10:08:29.253Z,107.13
2023-03-16T10:11:47.129Z,99.31
2023-03-16T10:15:02.028Z,82.38
2023-03-16T10:18:19.283Z,80.74
2023-03-16T10:21:27.472Z,72.45
2023-03-16T10:24:57.017Z,72.27
2023-03-16T10:28:05.689Z,58.36
2023-03-16T10:31:18.258Z,54.65
2023-03-16T10:34:25.007Z,60.83
2023-03-16T10:37:34.282Z,64.77
2023-03-16T10:40:43.034Z,58.71
2023-03-16T10:43:57.524Z,52.48
2023-03-16T10:47:08.469Z,55.24
2023-03-16T10:50:21.220Z,54.85
2023-03-16T10:53:33.138Z,51.35
2023-03-16T10:56:40.482Z,57.10
2023-03-16T10:59:52.964Z,49.48
2023-03-16T11:03:02.662Z,58.38
2023-03-16T11:06:20.736Z,64.66
2023-03-16T11:09:34.235Z,54.38
2023-03-16T11:12:40.082Z,48.97
2023-03-16T11:15:58.798Z,50.88
2023-03-16T11:19:20.905Z,51.50
2023-03-16T11:22:30.361Z,50.33
2023-03-16T11:25:48.157Z,43.56
2023-03-16T11:29:09.480Z,39.88
2023-03-16T11:32:28.918Z,39.92
2023-03-16T11:35:59.187Z,42.71
2023-03-16T11:39:26.839Z,41.38
2023-03-16T11:42:41.777Z,38.10
2023-03-16T11:46:05.710Z,41.76
2023-03-16T11:49:58.365Z,36.33
2023-03-16T11:53:21.373Z,50.59
2023-03-16T11:56:37.701Z,66.88
2023-03-16T12:00:10.708Z,47.28
2023-03-16T12:04:02.399Z,37.91
2023-03-16T12:07:39.718Z,46.92
2023-03-16T12:10:58.750Z,42.95
2023-03-16T12:14:19.820Z,36.80
2023-03-16T12:17:35.289Z,32.82
2023-03-16T12:20:53.097Z,32.61
2023-03-16T12:24:07.335Z,35.32
2023-03-16T12:27:21.384Z,36.48
2023-03-16T12:30:58.292Z,38.26
2023-03-16T12:34:26.054Z,38.99
2023-03-16T12:37:48.216Z,46.85
2023-03-16T12:41:19.991Z,38.94
2023-03-16T12:44:40.028Z,39.89
2023-03-16T12:48:00.968Z,38.65
2023-03-16T12:51:13.439Z,47.17
2023-03-16T12:54:25.437Z,46.03
2023-03-16T12:57:37.597Z,49.63
2023-03-16T13:00:45.431Z,53.99
2023-03-16T13:04:04.222Z,48.77
2023-03-16T13:07:19.478Z,59.53
2023-03-16T13:10:27.005Z,316.55
2023-03-16T13:13:37.421Z,210.15
2023-03-16T13:16:45.671Z,102.30
2023-03-16T13:20:06.894Z,45.11
2023-03-16T13:23:30.316Z,53.93
2023-03-16T13:26:45.541Z,54.13
2023-03-16T13:30:05.474Z,42.92
2023-03-16T13:33:25.827Z,43.75
2023-03-16T13:36:35.095Z,42.36
2023-03-16T13:39:40.965Z,41.60
2023-03-16T13:42:53.312Z,41.99
2023-03-16T13:46:03.692Z,44.33
2023-03-16T13:49:10.382Z,49.95
2023-03-16T13:52:28.924Z,49.63
2023-03-16T13:55:41.750Z,46.59
2023-03-16T13:58:52.867Z,42.65
2023-03-16T14:02:04.604Z,33.47
2023-03-16T14:05:15.908Z,39.63
2023-03-16T14:08:26.964Z,42.48
2023-03-16T14:11:33.742Z,53.11
2023-03-16T14:14:43.901Z,39.52
2023-03-16T14:17:52.600Z,39.09
2023-03-16T14:21:00.339Z,39.55
2023-03-16T14:24:09.604Z,46.43
2023-03-16T14:27:33.003Z,42.92
2023-03-16T14:30:38.855Z,37.08
2023-03-16T14:33:48.331Z,30.02
2023-03-16T14:36:54.290Z,41.88
2023-03-16T14:40:09.186Z,51.68
2023-03-16T14:43:15.825Z,40.57
2023-03-16T14:46:33.629Z,31.72
2023-03-16T14:49:43.609Z,33.13
2023-03-16T14:52:51.989Z,33.35
2023-03-16T14:56:01.313Z,34.93
2023-03-16T14:59:09.169Z,32.97
2023-03-16T15:02:23.155Z,39.56
2023-03-16T15:05:40.740Z,42.16
2023-03-16T15:08:51.073Z,46.37
2023-03-16T15:11:58.325Z,44.30
2023-03-16T15:15:19.599Z,54.01
2023-03-16T15:18:26.180Z,61.64
2023-03-16T15:21:35.141Z,59.65
2023-03-16T15:24:42.652Z,58.87
2023-03-16T15:27:49.287Z,368.74
2023-03-16T15:30:59.726Z,173.25
2023-03-16T15:34:07.298Z,208.37
2023-03-16T15:37:26.324Z,426.40
2023-03-16T15:40:33.911Z,214.41
2023-03-16T15:43:40.610Z,1117.78
2023-03-16T15:46:46.753Z,1689.06
2023-03-16T15:49:53.301Z,1691.63
2023-03-16T15:53:13.251Z,87.43
2023-03-16T15:56:30.096Z,99.50
2023-03-16T15:59:40.166Z,62.19
2023-03-16T16:02:46.748Z,67.93
2023-03-16T16:05:53.402Z,67.48
2023-03-16T16:09:02.910Z,64.57
2023-03-16T16:12:13.057Z,77.20
2023-03-16T16:15:25.808Z,82.15
2023-03-16T16:18:37.580Z,87.78
2023-03-16T16:21:44.909Z,96.15
2023-03-16T16:24:53.390Z,129.06
2023-03-16T16:28:00.452Z,122.76
2023-03-16T16:31:17.158Z,90.55
2023-03-16T16:34:27.314Z,77.34
2023-03-16T16:37:33.449Z,92.00
2023-03-16T16:40:46.303Z,103.10
2023-03-16T16:43:56.544Z,143.32
2023-03-16T16:47:03.649Z,113.65
2023-03-16T16:50:18.757Z,106.16
2023-03-16T16:53:25.691Z,102.29
2023-03-16T16:56:39.027Z,94.38
2023-03-16T16:59:47.203Z,102.09
2023-03-16T17:02:58.903Z,102.68
2023-03-16T17:06:05.514Z,113.98
2023-03-16T17:09:12.508Z,139.58
2023-03-16T17:12:26.324Z,152.32
2023-03-16T17:15:35.224Z,174.58
2023-03-16T17:18:42.349Z,203.85
2023-03-16T17:21:49.243Z,223.34
2023-03-16T17:24:56.434Z,302.59
2023-03-16T17:28:05.812Z,316.41
2023-03-16T17:31:15.703Z,556.91
2023-03-16T17:34:26.058Z,289.61
2023-03-16T17:37:32.704Z,260.23
2023-03-16T17:40:38.805Z,247.83
2023-03-16T17:43:51.497Z,239.80
2023-03-16T17:46:57.754Z,294.85
2023-03-16T17:50:04.549Z,223.93
2023-03-16T17:53:10.334Z,195.08
2023-03-16T17:56:27.223Z,209.43
2023-03-16T17:59:36.677Z,215.36
2023-03-16T18:02:56.769Z,298.14
2023-03-16T18:06:02.729Z,248.21
2023-03-16T18:09:09.856Z,320.57
2023-03-16T18:12:15.753Z,267.83
2023-03-16T18:15:31.286Z,299.43
2023-03-16T18:18:41.931Z,303.78
2023-03-16T18:21:48.578Z,348.19
2023-03-16T18:24:58.114Z,383.60
2023-03-16T18:28:05.394Z,369.86
2023-03-16T18:31:24.340Z,547.96
2023-03-16T18:34:37.793Z,627.98
2023-03-16T18:37:44.914Z,426.18
2023-03-16T18:40:51.617Z,394.82
2023-03-16T18:44:01.156Z,401.34
2023-03-16T18:47:22.167Z,412.20
2023-03-16T18:50:32.008Z,400.09
2023-03-16T18:53:38.998Z,423.77
2023-03-16T18:56:44.753Z,394.91
2023-03-16T18:59:52.412Z,425.28
2023-03-16T19:03:09.350Z,429.61
2023-03-16T19:06:21.494Z,481.61
2023-03-16T19:09:32.223Z,508.97
2023-03-16T19:12:39.242Z,503.99
2023-03-16T19:15:45.252Z,470.28
2023-03-16T19:18:54.608Z,517.43
2023-03-16T19:22:13.102Z,513.20
2023-03-16T19:25:48.612Z,474.93
2023-03-16T19:28:56.477Z,506.36
2023-03-16T19:32:04.165Z,554.99
2023-03-16T19:35:21.098Z,507.14
2023-03-16T19:38:31.873Z,478.92
2023-03-16T19:41:44.079Z,457.32
2023-03-16T19:44:53.928Z,457.06
2023-03-16T19:47:59.862Z,489.59
2023-03-16T19:51:09.394Z,447.86
2023-03-16T19:54:25.918Z,446.79
2023-03-16T19:57:34.081Z,437.90
2023-03-16T20:00:43.378Z,474.09
2023-03-16T20:03:54.793Z,488.62
2023-03-16T20:07:03.324Z,523.59
2023-03-16T20:10:11.911Z,502.07
2023-03-16T20:13:31.890Z,527.44
2023-03-16T20:16:39.556Z,589.21
2023-03-16T20:19:48.639Z,583.80
2023-03-16T20:23:02.503Z,572.38
2023-03-16T20:26:17.905Z,534.84
2023-03-16T20:29:32.894Z,534.06
2023-03-16T20:32:40.120Z,548.36
2023-03-16T20:35:47.529Z,704.53
2023-03-16T20:38:56.170Z,680.23
2023-03-16T20:42:16.768Z,708.49
2023-03-16T20:45:33.797Z,766.32
2023-03-16T20:48:43.384Z,769.13
2023-03-16T20:51:49.692Z,949.99
2023-03-16T20:54:58.915Z,950.92
2023-03-16T20:58:05.718Z,753.32
2023-03-16T21:01:18.899Z,732.19
2023-03-16T21:04:31.258Z,761.64
2023-03-16T21:07:37.949Z,726.48
2023-03-16T21:10:49.438Z,728.76
2023-03-16T21:13:57.571Z,724.34
2023-03-16T21:17:06.522Z,702.20
2023-03-16T21:20:20.744Z,720.03
2023-03-16T21:23:27.644Z,758.23
2023-03-16T21:26:37.967Z,880.08
2023-03-16T21:29:44.016Z,829.36
2023-03-16T21:32:50.771Z,825.01
2023-03-16T21:35:57.039Z,850.18
2023-03-16T21:39:04.113Z,894.40
2023-03-16T21:42:12.828Z,931.18
2023-03-16T21:45:20.418Z,973.85
2023-03-16T21:48:32.597Z,1001.09
2023-03-16T21:51:40.259Z,950.63
2023-03-16T21:54:47.738Z,953.89
2023-03-16T21:58:02.950Z,972.58
2023-03-16T22:01:09.712Z,977.98
2023-03-16T22:04:20.778Z,964.24
2023-03-16T22:07:28.469Z,983.13
2023-03-16T22:10:35.513Z,945.17
2023-03-16T22:13:44.442Z,889.07
2023-03-16T22:16:52.154Z,890.59
2023-03-16T22:19:58.209Z,874.74
2023-03-16T22:23:07.899Z,873.10
2023-03-16T22:26:22.638Z,857.02
2023-03-16T22:29:33.954Z,843.30
2023-03-16T22:32:39.911Z,844.14
2023-03-16T22:35:47.475Z,845.28
2023-03-16T22:39:02.386Z,908.18
2023-03-16T22:42:31.206Z,893.42
2023-03-16T22:45:39.968Z,838.28
2023-03-16T22:48:46.627Z,839.24
2023-03-16T22:51:58.408Z,822.69
2023-03-16T22:55:10.129Z,830.16
2023-03-16T22:58:30.921Z,853.67
2023-03-16T23:01:45.049Z,859.57
2023-03-16T23:04:51.008Z,887.07
2023-03-16T23:07:58.367Z,842.21
2023-03-16T23:11:04.445Z,807.94
2023-03-16T23:14:17.621Z,810.98
2023-03-16T23:17:26.082Z,821.58
2023-03-16T23:20:35.276Z,790.62
2023-03-16T23:23:44.372Z,752.36
2023-03-16T23:26:54.123Z,734.30
2023-03-16T23:30:00.044Z,777.76
2023-03-16T23:33:09.364Z,844.95
2023-03-16T23:36:18.559Z,773.80
2023-03-16T23:39:25.861Z,786.80
2023-03-16T23:42:31.793Z,826.55
2023-03-16T23:45:44.625Z,765.36
2023-03-16T23:48:58.341Z,742.52
2023-03-16T23:52:05.548Z,740.73
2023-03-16T23:55:16.365Z,755.08
2023-03-16T23:58:23.064Z,782.47
